Spring Branch, Texas
Current Conditions -  °F | °C
As of 5:55 AM on Monday 24 Nov 2014 (Local Time) from K5C1 Reporting Station
Clear Clear  
Wind Chill: 41°   Ceiling: Unl
Heat Index: 46°   Visibility: 10mi
Dew Point: 32°   Wind: 10mph
Humidity: 57%   Direction: 350°N
Pressure: 29.99"   Gusts: 16mph
Location:  29.89°N, 98.43°W
Report Text: K5C1 241155Z AUTO 35009G14KT 10SM CLR 08/00 A2999 RMK AO1
Loading
Personal Weather Stations






























Interactive Weather Map New forecast layout! Learn more

10-Day Weather Forecast

Advertisements
Track Severe Weather on mobile